Time;durP1;ratioP1;P1;durP2;ratioP2;P2;SDS_P1;SDS_P2;PMS_P1;PMS_P2;Temp;Humidity;BMP_temperature;BMP_pressure;BME280_temperature;BME280_humidity;BME280_pressure;Samples;Min_cycle;Max_cycle;Signal;HPM_P1;HPM_P2
2021/08/06 00:02:18;;;;;;;10.25;3.65;;;;;;;;;;4964951;28;20053;-77
2021/08/06 00:04:46;;;;;;;6.43;3.17;;;;;;;;;;4969656;28;20046;-77
2021/08/06 00:07:13;;;;;;;8.38;3.40;;;;;;;;;;4967892;28;20150;-78
2021/08/06 00:09:41;;;;;;;7.28;3.42;;;;;;;;;;4969516;28;20078;-77
2021/08/06 00:12:08;;;;;;;6.82;3.35;;;;;;;;;;4965357;28;20141;-77
2021/08/06 00:14:36;;;;;;;5.57;3.17;;;;;;;;;;4957950;28;20075;-77
2021/08/06 00:17:04;;;;;;;13.70;3.80;;;;;;;;;;4952772;28;20804;-78
2021/08/06 00:19:31;;;;;;;16.10;3.83;;;;;;;;;;4966331;28;20039;-77
2021/08/06 00:21:59;;;;;;;7.35;3.13;;;;;;;;;;4949860;28;20565;-78
2021/08/06 00:24:26;;;;;;;7.55;3.40;;;;;;;;;;4970760;28;20511;-77
2021/08/06 00:26:53;;;;;;;7.18;3.55;;;;;;;;;;4953114;28;20106;-78
2021/08/06 00:29:21;;;;;;;7.57;3.92;;;;;;;;;;4968863;28;20166;-77
2021/08/06 00:31:48;;;;;;;5.38;3.28;;;;;;;;;;4962877;28;20158;-78
2021/08/06 00:34:15;;;;;;;7.55;3.63;;;;;;;;;;4969268;28;20046;-78
2021/08/06 00:36:42;;;;;;;6.45;4.03;;;;;;;;;;4969689;28;20158;-77
2021/08/06 00:39:09;;;;;;;9.38;3.58;;;;;;;;;;4968074;28;20133;-77
2021/08/06 00:41:37;;;;;;;9.82;4.15;;;;;;;;;;4965228;28;20612;-78
2021/08/06 00:44:04;;;;;;;9.32;4.43;;;;;;;;;;4949972;28;20065;-77
2021/08/06 00:46:32;;;;;;;7.20;4.20;;;;;;;;;;4947139;28;20134;-78
2021/08/06 00:48:59;;;;;;;9.13;4.35;;;;;;;;;;4968867;28;20050;-78
2021/08/06 00:51:26;;;;;;;9.45;3.80;;;;;;;;;;4965958;28;20159;-78
2021/08/06 00:53:53;;;;;;;10.02;4.75;;;;;;;;;;4940455;28;20078;-77
2021/08/06 00:56:21;;;;;;;9.82;4.47;;;;;;;;;;4957778;28;20129;-78
2021/08/06 00:58:48;;;;;;;9.73;4.55;;;;;;;;;;4963706;28;20046;-77
2021/08/06 01:01:15;;;;;;;8.23;4.70;;;;;;;;;;4971089;28;20524;-77
2021/08/06 01:03:51;;;;;;;9.40;4.43;;;;;;;;;;4970959;28;20098;-78
2021/08/06 01:06:27;;;;;;;7.45;5.05;;;;;;;;;;4963763;28;20062;-78
2021/08/06 01:08:54;;;;;;;6.88;5.07;;;;;;;;;;4967157;28;20129;-78
2021/08/06 01:11:23;;;;;;;12.30;4.40;;;;;;;;;;4951186;28;20050;-77
2021/08/06 01:13:58;;;;;;;7.70;4.45;;;;;;;;;;4968010;28;20448;-77
2021/08/06 01:16:27;;;;;;;11.38;4.38;;;;;;;;;;4970303;28;20130;-77
2021/08/06 01:18:57;;;;;;;12.30;4.57;;;;;;;;;;4967878;28;20756;-78
2021/08/06 01:21:26;;;;;;;8.05;4.32;;;;;;;;;;4968188;28;20047;-78
2021/08/06 01:23:56;;;;;;;11.50;4.60;;;;;;;;;;4968138;28;20095;-78
2021/08/06 01:26:25;;;;;;;9.80;4.97;;;;;;;;;;4950662;28;20057;-77
2021/08/06 01:28:52;;;;;;;8.35;4.60;;;;;;;;;;4969995;28;20085;-77
2021/08/06 01:31:27;;;;;;;10.50;4.65;;;;;;;;;;4952341;28;20078;-78
2021/08/06 01:33:54;;;;;;;8.37;4.03;;;;;;;;;;4950426;28;20741;-77
2021/08/06 01:36:21;;;;;;;8.23;3.70;;;;;;;;;;4945960;29;20118;-78
2021/08/06 01:38:49;;;;;;;10.18;4.07;;;;;;;;;;4947239;28;20051;-77
2021/08/06 01:41:19;;;;;;;7.38;4.13;;;;;;;;;;4968627;28;20543;-77
2021/08/06 01:44:01;;;;;;;8.98;4.60;;;;;;;;;;4967364;28;20509;-77
2021/08/06 01:46:36;;;;;;;9.32;4.32;;;;;;;;;;4960820;28;20051;-77
2021/08/06 01:49:03;;;;;;;;;;;;;;;;;;4944263;28;20059;-77
2021/08/06 01:51:34;;;;;;;10.52;4.97;;;;;;;;;;4958731;28;19932;-78
2021/08/06 01:54:02;;;;;;;9.35;4.53;;;;;;;;;;4945732;28;20125;-77
2021/08/06 01:56:31;;;;;;;10.93;4.53;;;;;;;;;;4960829;28;20050;-77
2021/08/06 01:59:00;;;;;;;7.97;3.85;;;;;;;;;;4965665;28;20133;-77
2021/08/06 02:01:27;;;;;;;10.20;4.28;;;;;;;;;;4965468;28;20057;-78
2021/08/06 02:03:55;;;;;;;6.95;4.60;;;;;;;;;;4967019;28;20066;-77
2021/08/06 02:06:23;;;;;;;10.82;5.22;;;;;;;;;;4965315;28;20106;-78
2021/08/06 02:08:51;;;;;;;8.02;4.60;;;;;;;;;;4960673;28;20129;-78
2021/08/06 02:11:21;;;;;;;9.88;4.43;;;;;;;;;;4949499;28;20130;-78
2021/08/06 02:13:52;;;;;;;9.75;5.13;;;;;;;;;;4960508;28;20047;-78
2021/08/06 02:16:19;;;;;;;12.50;5.18;;;;;;;;;;4951316;28;20134;-78
2021/08/06 02:18:49;;;;;;;7.25;4.57;;;;;;;;;;4950745;28;20082;-78
2021/08/06 02:21:17;;;;;;;7.70;5.05;;;;;;;;;;4967256;28;20129;-77
2021/08/06 02:23:48;;;;;;;7.57;4.70;;;;;;;;;;4968214;28;20157;-77
2021/08/06 02:26:17;;;;;;;12.38;4.93;;;;;;;;;;4946698;28;20134;-77
2021/08/06 02:28:45;;;;;;;7.70;3.97;;;;;;;;;;4966812;28;20129;-77
2021/08/06 02:31:13;;;;;;;6.97;4.40;;;;;;;;;;4966699;28;20133;-77
2021/08/06 02:33:40;;;;;;;9.52;5.50;;;;;;;;;;4944751;28;20051;-77
2021/08/06 02:36:07;;;;;;;13.98;5.05;;;;;;;;;;4966523;28;20066;-77
2021/08/06 02:38:34;;;;;;;17.23;5.10;;;;;;;;;;4945282;28;20050;-77
2021/08/06 02:41:02;;;;;;;8.15;4.63;;;;;;;;;;4941197;28;20054;-77
2021/08/06 02:43:29;;;;;;;8.85;4.80;;;;;;;;;;4965074;28;20453;-78
2021/08/06 02:45:56;;;;;;;6.68;4.22;;;;;;;;;;4964943;28;20118;-78
2021/08/06 02:48:23;;;;;;;10.10;4.35;;;;;;;;;;4966695;28;20165;-77
2021/08/06 02:50:50;;;;;;;9.23;4.65;;;;;;;;;;4968184;28;20050;-77
2021/08/06 02:53:18;;;;;;;11.23;5.25;;;;;;;;;;4935442;28;20056;-77
2021/08/06 02:55:46;;;;;;;10.30;4.75;;;;;;;;;;4963876;28;20468;-77
2021/08/06 02:58:13;;;;;;;10.75;5.28;;;;;;;;;;4944890;28;20133;-77
2021/08/06 03:00:40;;;;;;;11.18;4.88;;;;;;;;;;4965405;28;20553;-77
2021/08/06 03:03:07;;;;;;;10.40;4.70;;;;;;;;;;4968604;28;21269;-77
2021/08/06 03:05:34;;;;;;;13.50;5.22;;;;;;;;;;4960398;28;20070;-77
2021/08/06 03:08:02;;;;;;;8.07;5.60;;;;;;;;;;4964819;28;20162;-78
2021/08/06 03:10:29;;;;;;;12.52;4.65;;;;;;;;;;4943421;28;20129;-77
2021/08/06 03:12:56;;;;;;;11.73;4.93;;;;;;;;;;4964121;28;20500;-77
2021/08/06 03:15:23;;;;;;;11.93;5.68;;;;;;;;;;4965072;28;20070;-77
2021/08/06 03:17:50;;;;;;;12.35;4.90;;;;;;;;;;4946175;28;20129;-77
2021/08/06 03:20:20;;;;;;;8.57;4.88;;;;;;;;;;4962656;28;20051;-77
2021/08/06 03:22:48;;;;;;;16.80;5.38;;;;;;;;;;4963256;28;20161;-77
2021/08/06 03:25:15;;;;;;;11.40;4.88;;;;;;;;;;4966729;28;20082;-77
2021/08/06 03:27:42;;;;;;;9.38;5.20;;;;;;;;;;4963541;28;20137;-77
2021/08/06 03:30:12;;;;;;;20.58;5.57;;;;;;;;;;4968455;28;20134;-78
2021/08/06 03:32:39;;;;;;;7.82;4.80;;;;;;;;;;4968099;28;20078;-78
2021/08/06 03:35:07;;;;;;;10.20;4.97;;;;;;;;;;4966793;28;20583;-77
2021/08/06 03:37:35;;;;;;;8.75;4.78;;;;;;;;;;4968212;28;20077;-77
2021/08/06 03:40:02;;;;;;;13.73;4.80;;;;;;;;;;4966511;28;20051;-77
2021/08/06 03:42:29;;;;;;;14.23;4.93;;;;;;;;;;4966150;28;20847;-78
2021/08/06 03:44:56;;;;;;;11.60;5.68;;;;;;;;;;4967886;28;20057;-78
2021/08/06 03:47:23;;;;;;;7.57;4.57;;;;;;;;;;4963563;28;20050;-78
2021/08/06 03:49:50;;;;;;;8.88;4.70;;;;;;;;;;4967617;28;20516;-78
2021/08/06 03:52:18;;;;;;;5.93;4.38;;;;;;;;;;4961962;28;20101;-77
2021/08/06 03:54:45;;;;;;;6.75;3.85;;;;;;;;;;4965708;28;20057;-78
2021/08/06 03:57:12;;;;;;;7.38;3.35;;;;;;;;;;4967478;28;20775;-78
2021/08/06 03:59:39;;;;;;;5.05;3.63;;;;;;;;;;4964177;28;20129;-78
2021/08/06 04:02:07;;;;;;;5.70;3.50;;;;;;;;;;4939236;28;20083;-76
2021/08/06 04:04:35;;;;;;;7.22;3.33;;;;;;;;;;4952324;28;20051;-79
2021/08/06 04:07:03;;;;;;;7.57;3.72;;;;;;;;;;4970290;28;20515;-77
2021/08/06 04:09:30;;;;;;;5.72;3.42;;;;;;;;;;4971572;28;20134;-80
2021/08/06 04:11:57;;;;;;;6.47;3.55;;;;;;;;;;4955943;28;20129;-81
2021/08/06 04:14:25;;;;;;;6.22;3.85;;;;;;;;;;4968253;28;20549;-79
2021/08/06 04:16:52;;;;;;;15.77;4.28;;;;;;;;;;4973811;28;20043;-79
2021/08/06 04:19:20;;;;;;;6.95;4.13;;;;;;;;;;4951681;28;20146;-79
2021/08/06 04:21:47;;;;;;;7.53;4.35;;;;;;;;;;4949406;29;20078;-77
2021/08/06 04:24:14;;;;;;;8.43;4.32;;;;;;;;;;4969394;28;20087;-77
2021/08/06 04:26:41;;;;;;;10.98;3.90;;;;;;;;;;4969142;28;20142;-77
2021/08/06 04:29:08;;;;;;;13.10;5.55;;;;;;;;;;4951281;28;20134;-77
2021/08/06 04:31:35;;;;;;;9.90;3.70;;;;;;;;;;4951968;28;20057;-77
2021/08/06 04:34:03;;;;;;;6.07;4.32;;;;;;;;;;4969845;28;20138;-78
2021/08/06 04:36:30;;;;;;;9.05;4.05;;;;;;;;;;4935638;28;20958;-78
2021/08/06 04:38:57;;;;;;;5.40;3.75;;;;;;;;;;4947062;28;20071;-77
2021/08/06 04:41:24;;;;;;;14.00;4.55;;;;;;;;;;4968567;28;20081;-77
2021/08/06 04:43:51;;;;;;;8.85;5.00;;;;;;;;;;4953654;28;20066;-78
2021/08/06 04:46:19;;;;;;;11.82;4.65;;;;;;;;;;4970785;28;20055;-77
2021/08/06 04:48:46;;;;;;;7.57;4.65;;;;;;;;;;4968005;28;20051;-77
2021/08/06 04:51:13;;;;;;;9.65;4.10;;;;;;;;;;4947313;28;20161;-77
2021/08/06 04:53:40;;;;;;;7.60;4.70;;;;;;;;;;4966727;28;20153;-77
2021/08/06 04:56:09;;;;;;;11.10;4.90;;;;;;;;;;4964922;28;20083;-77
2021/08/06 04:58:36;;;;;;;6.85;4.32;;;;;;;;;;4953625;28;20093;-77
2021/08/06 05:01:03;;;;;;;7.20;4.68;;;;;;;;;;4965634;28;20129;-77
2021/08/06 05:03:31;;;;;;;8.85;4.78;;;;;;;;;;4966328;28;20135;-77
2021/08/06 05:05:58;;;;;;;11.23;5.20;;;;;;;;;;4964129;28;20137;-78
2021/08/06 05:08:25;;;;;;;8.85;5.03;;;;;;;;;;4962322;28;20900;-77
2021/08/06 05:10:52;;;;;;;13.15;5.45;;;;;;;;;;4947572;28;20129;-78
2021/08/06 05:13:19;;;;;;;9.75;5.10;;;;;;;;;;4943370;28;20134;-77
2021/08/06 05:15:47;;;;;;;15.27;5.88;;;;;;;;;;4954265;28;20165;-77
2021/08/06 05:18:14;;;;;;;8.70;5.10;;;;;;;;;;4959271;28;20087;-77
2021/08/06 05:20:41;;;;;;;10.27;5.10;;;;;;;;;;4963348;28;20133;-78
2021/08/06 05:23:08;;;;;;;15.40;5.70;;;;;;;;;;4959110;28;20170;-78
2021/08/06 05:25:35;;;;;;;14.52;5.60;;;;;;;;;;4942251;28;21786;-78
2021/08/06 05:28:03;;;;;;;9.50;4.85;;;;;;;;;;4963826;28;20129;-77
2021/08/06 05:30:30;;;;;;;11.82;5.68;;;;;;;;;;4961815;28;20094;-77
2021/08/06 05:32:57;;;;;;;13.73;6.05;;;;;;;;;;4969908;28;20054;-77
2021/08/06 05:35:24;;;;;;;12.52;5.45;;;;;;;;;;4963086;28;20137;-78
2021/08/06 05:37:54;;;;;;;12.43;5.80;;;;;;;;;;4963445;28;20896;-78
2021/08/06 05:40:22;;;;;;;22.13;5.55;;;;;;;;;;4958900;28;20454;-78
2021/08/06 05:42:49;;;;;;;9.10;5.50;;;;;;;;;;4960614;28;20078;-77
2021/08/06 05:45:16;;;;;;;12.02;5.65;;;;;;;;;;4969021;28;20443;-78
2021/08/06 05:47:47;;;;;;;13.65;5.05;;;;;;;;;;4965249;28;20870;-77
2021/08/06 05:50:15;;;;;;;6.95;4.45;;;;;;;;;;4958213;28;20103;-78
2021/08/06 05:52:43;;;;;;;16.98;5.70;;;;;;;;;;4961297;23;20066;-80
2021/08/06 05:55:10;;;;;;;11.50;5.32;;;;;;;;;;4953776;28;20439;-80
2021/08/06 05:57:39;;;;;;;11.07;4.95;;;;;;;;;;4956177;28;20121;-80
2021/08/06 06:00:07;;;;;;;10.43;5.35;;;;;;;;;;4947826;29;20075;-81
2021/08/06 06:02:35;;;;;;;19.85;8.88;;;;;;;;;;4954392;29;20720;-80
2021/08/06 06:05:05;;;;;;;12.23;5.45;;;;;;;;;;4937049;29;20043;-80
2021/08/06 06:07:33;;;;;;;9.05;5.03;;;;;;;;;;4954482;29;20059;-81
2021/08/06 06:10:00;;;;;;;10.48;4.38;;;;;;;;;;4954345;28;20138;-81
2021/08/06 06:12:32;;;;;;;8.75;5.07;;;;;;;;;;4954086;29;20138;-81
2021/08/06 06:15:01;;;;;;;6.68;4.20;;;;;;;;;;4937238;29;20047;-81
2021/08/06 06:17:28;;;;;;;11.85;5.35;;;;;;;;;;4954653;29;20051;-81
2021/08/06 06:19:56;;;;;;;14.63;6.00;;;;;;;;;;4954973;29;20113;-81
2021/08/06 06:22:27;;;;;;;11.23;5.45;;;;;;;;;;4937574;29;20468;-80
2021/08/06 06:24:55;;;;;;;11.88;4.63;;;;;;;;;;4946383;28;20137;-80
2021/08/06 06:27:25;;;;;;;12.35;4.07;;;;;;;;;;4956845;28;20572;-81
2021/08/06 06:29:58;;;;;;;7.00;4.00;;;;;;;;;;4973198;28;20134;-81
2021/08/06 06:32:27;;;;;;;5.68;4.05;;;;;;;;;;4956997;28;20054;-81
2021/08/06 06:35:00;;;;;;;12.48;3.67;;;;;;;;;;4973862;28;20078;-80
2021/08/06 06:37:27;;;;;;;4.28;2.90;;;;;;;;;;4956089;28;20436;-80
2021/08/06 06:39:56;;;;;;;10.15;4.15;;;;;;;;;;4973341;28;20476;-81
2021/08/06 06:42:23;;;;;;;9.60;3.63;;;;;;;;;;4972911;28;20086;-80
2021/08/06 06:44:51;;;;;;;9.35;3.38;;;;;;;;;;4973021;28;20141;-81
2021/08/06 06:47:19;;;;;;;8.80;3.60;;;;;;;;;;4950420;28;20058;-81
2021/08/06 06:49:46;;;;;;;14.77;4.50;;;;;;;;;;4971735;28;20137;-80
2021/08/06 06:52:13;;;;;;;6.90;3.33;;;;;;;;;;4970962;28;20141;-80
2021/08/06 06:54:40;;;;;;;7.63;3.28;;;;;;;;;;4952066;28;20839;-81
2021/08/06 06:57:07;;;;;;;8.73;3.30;;;;;;;;;;4954233;28;20093;-81
2021/08/06 06:59:34;;;;;;;11.98;3.58;;;;;;;;;;4949709;28;20085;-80
2021/08/06 07:02:02;;;;;;;5.80;3.70;;;;;;;;;;4954959;28;20519;-80
2021/08/06 07:04:32;;;;;;;5.47;3.40;;;;;;;;;;4958380;28;20098;-81
2021/08/06 07:07:05;;;;;;;6.13;3.97;;;;;;;;;;4953554;29;20544;-80
2021/08/06 07:09:33;;;;;;;13.52;3.28;;;;;;;;;;4936702;29;20560;-81
2021/08/06 07:12:01;;;;;;;7.70;3.53;;;;;;;;;;4960730;23;20061;-81
2021/08/06 07:14:29;;;;;;;7.15;3.40;;;;;;;;;;4979181;28;20129;-81
2021/08/06 07:16:58;;;;;;;4.78;3.67;;;;;;;;;;4989585;28;20054;-80
2021/08/06 07:19:25;;;;;;;9.15;3.58;;;;;;;;;;4991162;28;20147;-81
2021/08/06 07:21:53;;;;;;;9.85;4.03;;;;;;;;;;4991107;28;20133;-81
2021/08/06 07:24:20;;;;;;;9.35;3.80;;;;;;;;;;4977746;28;20123;-81
2021/08/06 07:26:47;;;;;;;4.30;3.50;;;;;;;;;;4977485;28;20070;-80
2021/08/06 07:29:19;;;;;;;4.53;3.05;;;;;;;;;;4952228;29;20141;-85
2021/08/06 07:31:46;;;;;;;10.57;4.10;;;;;;;;;;4952462;29;20493;-86
2021/08/06 07:34:13;;;;;;;5.57;3.70;;;;;;;;;;4964920;28;20134;-85
2021/08/06 07:36:41;;;;;;;7.53;4.07;;;;;;;;;;4978960;28;20442;-82
2021/08/06 07:39:08;;;;;;;18.42;5.05;;;;;;;;;;4996591;28;20081;-81
2021/08/06 07:41:35;;;;;;;6.82;3.88;;;;;;;;;;4990899;28;20085;-82
2021/08/06 07:44:04;;;;;;;14.15;4.07;;;;;;;;;;4981018;28;20042;-84
2021/08/06 07:46:33;;;;;;;7.30;3.50;;;;;;;;;;4977193;28;20145;-83
2021/08/06 07:49:00;;;;;;;5.15;3.55;;;;;;;;;;4976785;28;20078;-83
2021/08/06 07:51:27;;;;;;;6.45;3.25;;;;;;;;;;4955228;29;20055;-79
2021/08/06 07:53:54;;;;;;;6.15;3.67;;;;;;;;;;4963865;28;20516;-80
2021/08/06 07:56:21;;;;;;;7.43;3.70;;;;;;;;;;4976079;28;20125;-80
2021/08/06 07:58:49;;;;;;;19.55;4.10;;;;;;;;;;4990556;28;20106;-80
2021/08/06 08:01:16;;;;;;;9.52;3.78;;;;;;;;;;4994433;28;20101;-81
2021/08/06 08:03:43;;;;;;;8.52;4.30;;;;;;;;;;4995122;28;20058;-80
2021/08/06 08:06:11;;;;;;;4.90;3.42;;;;;;;;;;4962595;28;20050;-80
2021/08/06 08:08:39;;;;;;;5.00;3.53;;;;;;;;;;4953369;28;20097;-80
2021/08/06 08:11:06;;;;;;;4.30;3.42;;;;;;;;;;4953666;29;20054;-79
2021/08/06 08:13:37;;;;;;;11.55;6.78;;;;;;;;;;4968838;28;20078;-79
2021/08/06 08:16:04;;;;;;;8.35;5.03;;;;;;;;;;4956062;28;20082;-81
2021/08/06 08:18:38;;;;;;;8.55;3.58;;;;;;;;;;4972363;28;20530;-81
2021/08/06 08:21:05;;;;;;;7.65;3.78;;;;;;;;;;4976299;28;20651;-81
2021/08/06 08:23:32;;;;;;;9.82;4.07;;;;;;;;;;4969074;28;20070;-81
2021/08/06 08:25:59;;;;;;;7.72;3.60;;;;;;;;;;4982288;28;20133;-81
2021/08/06 08:28:27;;;;;;;7.25;3.85;;;;;;;;;;4982082;28;20102;-80
2021/08/06 08:30:54;;;;;;;6.82;3.22;;;;;;;;;;4971243;28;20062;-80
2021/08/06 08:33:23;;;;;;;5.75;3.42;;;;;;;;;;4975219;28;20055;-81
2021/08/06 08:35:50;;;;;;;5.72;3.25;;;;;;;;;;4975038;28;20109;-82
2021/08/06 08:38:22;;;;;;;4.72;3.15;;;;;;;;;;4972681;28;20551;-81
2021/08/06 08:40:50;;;;;;;4.50;3.15;;;;;;;;;;4974687;28;20441;-81
2021/08/06 08:43:17;;;;;;;8.20;3.90;;;;;;;;;;4974828;28;20449;-82
2021/08/06 08:45:44;;;;;;;11.80;3.95;;;;;;;;;;4976171;28;20705;-81
2021/08/06 08:48:13;;;;;;;8.43;3.92;;;;;;;;;;4959063;28;20120;-81
2021/08/06 08:50:41;;;;;;;12.43;4.40;;;;;;;;;;4975630;28;20137;-81
2021/08/06 08:53:09;;;;;;;6.55;3.38;;;;;;;;;;4975557;28;20078;-82
2021/08/06 08:55:38;;;;;;;5.00;3.55;;;;;;;;;;4980835;28;20046;-82
2021/08/06 08:58:06;;;;;;;8.20;3.83;;;;;;;;;;4995179;28;20688;-82
2021/08/06 09:00:34;;;;;;;5.20;3.50;;;;;;;;;;4970354;28;20082;-83
2021/08/06 09:03:04;;;;;;;4.68;3.47;;;;;;;;;;4960383;28;20500;-82
2021/08/06 09:05:31;;;;;;;5.90;3.80;;;;;;;;;;4981451;28;20050;-81
2021/08/06 09:07:59;;;;;;;7.03;3.78;;;;;;;;;;4973944;28;20138;-83
2021/08/06 09:10:28;;;;;;;4.82;3.42;;;;;;;;;;4971370;28;20054;-83
2021/08/06 09:13:00;;;;;;;13.88;3.35;;;;;;;;;;4974626;28;20051;-82
2021/08/06 09:15:41;;;;;;;6.15;3.58;;;;;;;;;;4968773;28;20070;-82
2021/08/06 09:18:24;;;;;;;4.47;3.75;;;;;;;;;;4969275;28;20191;-82
2021/08/06 09:20:52;;;;;;;8.88;3.92;;;;;;;;;;4973123;28;20090;-82
2021/08/06 09:23:37;;;;;;;3.80;3.00;;;;;;;;;;4971168;28;20094;-78
2021/08/06 09:26:05;;;;;;;3.72;3.10;;;;;;;;;;4971246;28;20463;-79
2021/08/06 09:28:34;;;;;;;27.00;4.85;;;;;;;;;;4967647;28;20568;-79
2021/08/06 09:31:15;;;;;;;13.77;3.47;;;;;;;;;;4969186;28;20130;-77
2021/08/06 09:33:42;;;;;;;7.00;2.80;;;;;;;;;;4968896;28;20082;-78
2021/08/06 09:36:15;;;;;;;4.53;2.92;;;;;;;;;;4970965;28;20745;-79
2021/08/06 09:38:42;;;;;;;7.55;3.00;;;;;;;;;;4969741;28;20105;-79
2021/08/06 09:41:30;;;;;;;6.50;3.00;;;;;;;;;;4967609;28;20058;-78
2021/08/06 09:44:17;;;;;;;5.20;2.85;;;;;;;;;;4969575;28;20078;-78
2021/08/06 09:46:45;;;;;;;5.20;2.78;;;;;;;;;;4972238;28;20050;-79
2021/08/06 09:49:12;;;;;;;13.98;2.83;;;;;;;;;;4969234;28;20085;-79
2021/08/06 09:51:40;;;;;;;5.25;3.05;;;;;;;;;;4967705;28;20267;-78
2021/08/06 09:54:24;;;;;;;5.35;2.65;;;;;;;;;;4965251;28;20146;-78
2021/08/06 09:57:05;;;;;;;7.88;3.17;;;;;;;;;;4973774;28;20039;-77
2021/08/06 09:59:34;;;;;;;12.32;3.38;;;;;;;;;;4966319;28;20129;-77
2021/08/06 10:02:13;;;;;;;12.10;3.40;;;;;;;;;;4969768;28;20085;-78
2021/08/06 10:04:42;;;;;;;6.32;3.53;;;;;;;;;;4964761;28;20047;-78
2021/08/06 10:07:09;;;;;;;6.75;2.97;;;;;;;;;;4969035;28;20082;-79
2021/08/06 10:09:37;;;;;;;5.97;3.03;;;;;;;;;;4968556;28;20129;-80
2021/08/06 10:12:05;;;;;;;7.68;3.65;;;;;;;;;;4967253;28;20062;-79
2021/08/06 10:14:34;;;;;;;13.32;3.63;;;;;;;;;;4965345;28;20058;-79
2021/08/06 10:17:02;;;;;;;9.80;3.65;;;;;;;;;;4965704;28;20130;-80
2021/08/06 10:19:30;;;;;;;5.68;3.20;;;;;;;;;;4971137;28;20292;-79
2021/08/06 10:21:57;;;;;;;6.95;3.40;;;;;;;;;;4971133;28;20143;-79
2021/08/06 10:24:24;;;;;;;12.05;3.28;;;;;;;;;;4956570;28;20435;-79
2021/08/06 10:26:52;;;;;;;11.70;3.53;;;;;;;;;;4980541;28;20837;-79
2021/08/06 10:29:19;;;;;;;5.75;2.85;;;;;;;;;;4970579;28;20129;-79
2021/08/06 10:32:06;;;;;;;10.05;4.00;;;;;;;;;;4973505;28;20134;-80
2021/08/06 10:34:33;;;;;;;3.05;2.75;;;;;;;;;;4966195;28;20550;-79
2021/08/06 10:37:02;;;;;;;3.20;2.90;;;;;;;;;;4980785;28;20134;-80
2021/08/06 10:39:36;;;;;;;5.57;3.15;;;;;;;;;;4970269;28;20632;-79
2021/08/06 10:42:05;;;;;;;4.07;3.10;;;;;;;;;;4962977;28;20106;-81
2021/08/06 10:44:53;;;;;;;6.07;3.20;;;;;;;;;;4972975;28;20082;-79
2021/08/06 10:47:21;;;;;;;5.25;2.83;;;;;;;;;;4970214;28;20089;-79
2021/08/06 10:50:07;;;;;;;6.63;3.15;;;;;;;;;;4969374;28;20496;-79
2021/08/06 10:52:35;;;;;;;5.57;3.00;;;;;;;;;;4972056;28;20129;-80
2021/08/06 10:55:20;;;;;;;5.68;3.20;;;;;;;;;;4966644;28;20085;-80
2021/08/06 10:57:48;;;;;;;7.13;3.40;;;;;;;;;;4974315;28;20670;-80
2021/08/06 11:00:51;;;;;;;5.05;3.25;;;;;;;;;;4973679;28;20053;-80
2021/08/06 11:03:34;;;;;;;14.88;3.72;;;;;;;;;;4892045;29;20172;-80
2021/08/06 11:06:23;;;;;;;5.40;2.92;;;;;;;;;;4965774;28;20097;-80
2021/08/06 11:08:50;;;;;;;6.07;3.10;;;;;;;;;;4955642;28;20125;-79
2021/08/06 11:11:36;;;;;;;7.43;3.10;;;;;;;;;;4960378;28;20171;-80
2021/08/06 11:14:04;;;;;;;4.50;2.88;;;;;;;;;;4963438;28;20062;-79
2021/08/06 11:16:32;;;;;;;8.02;3.00;;;;;;;;;;4969272;28;20046;-78
2021/08/06 11:19:00;;;;;;;7.35;2.90;;;;;;;;;;4966522;28;20722;-77
2021/08/06 11:21:42;;;;;;;8.88;3.10;;;;;;;;;;4968591;28;20046;-80
2021/08/06 11:24:10;;;;;;;5.63;3.33;;;;;;;;;;4954833;28;20051;-78
2021/08/06 11:26:38;;;;;;;8.75;3.22;;;;;;;;;;4971978;28;20137;-77
2021/08/06 11:29:13;;;;;;;10.18;2.72;;;;;;;;;;4969062;28;20138;-78
2021/08/06 11:31:40;;;;;;;6.75;3.13;;;;;;;;;;4967069;28;20185;-77
2021/08/06 11:34:08;;;;;;;7.22;3.33;;;;;;;;;;4961916;28;20051;-80
2021/08/06 11:36:36;;;;;;;5.28;2.28;;;;;;;;;;4969607;28;20226;-78
2021/08/06 11:39:12;;;;;;;4.28;2.10;;;;;;;;;;4965498;28;20412;-78
2021/08/06 11:41:49;;;;;;;4.28;2.55;;;;;;;;;;4962926;28;20134;-79
2021/08/06 11:44:16;;;;;;;4.20;2.80;;;;;;;;;;4964335;28;20121;-78
2021/08/06 11:46:55;;;;;;;4.60;2.67;;;;;;;;;;4967656;28;20161;-78
2021/08/06 11:49:23;;;;;;;7.18;2.83;;;;;;;;;;4969587;28;20062;-78
2021/08/06 11:51:58;;;;;;;12.40;4.35;;;;;;;;;;4968480;28;20113;-79
2021/08/06 11:54:26;;;;;;;4.70;2.97;;;;;;;;;;4963430;28;20114;-81
2021/08/06 11:56:58;;;;;;;4.07;2.92;;;;;;;;;;4970794;28;20860;-79
2021/08/06 11:59:26;;;;;;;5.60;2.17;;;;;;;;;;4972776;28;20697;-82
2021/08/06 12:02:13;;;;;;;4.13;2.58;;;;;;;;;;4971160;28;20082;-79
2021/08/06 12:04:42;;;;;;;7.45;2.55;;;;;;;;;;4970139;28;20787;-78
2021/08/06 12:07:12;;;;;;;6.03;3.05;;;;;;;;;;4972355;28;20494;-85
2021/08/06 12:09:44;;;;;;;3.42;2.53;;;;;;;;;;4985653;28;20081;-83
2021/08/06 12:12:13;;;;;;;3.63;3.08;;;;;;;;;;4972151;28;20062;-85
2021/08/06 12:14:44;;;;;;;6.90;2.90;;;;;;;;;;4972381;28;20126;-81
2021/08/06 12:17:20;;;;;;;7.22;3.10;;;;;;;;;;4968868;28;20093;-81
2021/08/06 12:19:48;;;;;;;6.57;3.10;;;;;;;;;;4969382;28;20061;-82
2021/08/06 12:22:17;;;;;;;6.82;2.97;;;;;;;;;;4966083;28;20102;-80
2021/08/06 12:24:45;;;;;;;7.00;3.47;;;;;;;;;;4965200;28;20046;-81
2021/08/06 12:27:25;;;;;;;10.77;3.67;;;;;;;;;;4982326;28;20066;-80
2021/08/06 12:29:52;;;;;;;8.30;4.05;;;;;;;;;;4966418;28;20157;-79
2021/08/06 12:32:19;;;;;;;5.30;3.08;;;;;;;;;;4973970;28;20134;-81
2021/08/06 12:34:52;;;;;;;10.93;2.95;;;;;;;;;;4970984;28;20129;-78
2021/08/06 12:37:20;;;;;;;4.72;3.20;;;;;;;;;;4976143;28;20042;-79
2021/08/06 12:39:49;;;;;;;4.65;2.80;;;;;;;;;;4975763;28;20125;-81
2021/08/06 12:42:18;;;;;;;6.80;3.30;;;;;;;;;;4975223;28;20473;-83
2021/08/06 12:45:03;;;;;;;3.83;2.90;;;;;;;;;;4971934;28;20050;-80
2021/08/06 12:47:31;;;;;;;;;;;;;;;;;;4956265;29;20055;-81
2021/08/06 12:50:00;;;;;;;9.75;3.25;;;;;;;;;;4970287;28;19926;-85
2021/08/06 12:52:28;;;;;;;4.45;2.83;;;;;;;;;;4976827;28;20074;-78
2021/08/06 12:54:55;;;;;;;7.13;3.00;;;;;;;;;;4972813;28;20093;-80
2021/08/06 12:57:38;;;;;;;5.25;3.42;;;;;;;;;;4958856;28;20138;-80
2021/08/06 13:00:14;;;;;;;6.93;2.85;;;;;;;;;;4969446;28;20130;-82
2021/08/06 13:02:41;;;;;;;4.47;2.65;;;;;;;;;;4967081;28;20130;-80
2021/08/06 13:05:10;;;;;;;9.98;3.13;;;;;;;;;;4967717;28;20047;-80
2021/08/06 13:07:37;;;;;;;4.35;2.22;;;;;;;;;;4974692;28;20094;-80
2021/08/06 13:10:25;;;;;;;7.22;2.70;;;;;;;;;;4973099;28;20069;-82
2021/08/06 13:12:52;;;;;;;5.20;2.40;;;;;;;;;;4974629;28;20464;-80
2021/08/06 13:15:20;;;;;;;3.42;2.40;;;;;;;;;;4974098;28;20053;-80
2021/08/06 13:17:47;;;;;;;2.95;2.33;;;;;;;;;;4972752;28;20074;-79
2021/08/06 13:20:15;;;;;;;2.22;2.00;;;;;;;;;;4980897;28;20081;-81
2021/08/06 13:22:42;;;;;;;5.75;2.25;;;;;;;;;;4989926;28;20070;-80
2021/08/06 13:25:11;;;;;;;8.15;2.72;;;;;;;;;;4984056;28;20052;-80
2021/08/06 13:27:38;;;;;;;3.08;2.50;;;;;;;;;;4985702;28;20046;-80
2021/08/06 13:30:08;;;;;;;4.25;2.67;;;;;;;;;;4993932;28;20050;-82
2021/08/06 13:32:36;;;;;;;4.88;2.50;;;;;;;;;;4981253;28;20137;-80
2021/08/06 13:35:04;;;;;;;3.40;2.28;;;;;;;;;;4972925;28;20050;-80
2021/08/06 13:37:31;;;;;;;8.63;2.40;;;;;;;;;;4973451;28;20491;-80
2021/08/06 13:39:58;;;;;;;5.60;2.00;;;;;;;;;;4972990;28;20453;-81
2021/08/06 13:42:27;;;;;;;3.40;2.63;;;;;;;;;;4974315;28;20070;-81
2021/08/06 13:44:54;;;;;;;9.55;2.83;;;;;;;;;;4974361;28;20074;-80
2021/08/06 13:47:23;;;;;;;7.32;2.70;;;;;;;;;;4975347;28;20162;-81
2021/08/06 13:49:53;;;;;;;5.05;2.60;;;;;;;;;;4973789;28;20082;-81
2021/08/06 13:52:21;;;;;;;7.35;3.10;;;;;;;;;;4974634;28;20059;-80
2021/08/06 13:54:48;;;;;;;5.32;2.95;;;;;;;;;;4970068;28;20055;-79
2021/08/06 13:57:15;;;;;;;6.38;2.90;;;;;;;;;;4979236;28;20571;-82
2021/08/06 13:59:42;;;;;;;3.40;2.50;;;;;;;;;;4970815;28;20130;-80
2021/08/06 14:02:10;;;;;;;10.95;3.17;;;;;;;;;;4972408;28;20055;-79
2021/08/06 14:04:37;;;;;;;6.80;2.58;;;;;;;;;;4970937;28;20050;-79
2021/08/06 14:07:05;;;;;;;4.10;2.60;;;;;;;;;;4971939;28;20090;-79
2021/08/06 14:09:32;;;;;;;5.65;2.80;;;;;;;;;;4970739;28;20134;-79
2021/08/06 14:11:59;;;;;;;4.28;2.47;;;;;;;;;;4969155;28;20078;-80
2021/08/06 14:14:28;;;;;;;9.60;2.80;;;;;;;;;;4966622;28;20676;-79
2021/08/06 14:16:55;;;;;;;6.75;3.22;;;;;;;;;;4953402;28;20126;-80
2021/08/06 14:19:22;;;;;;;7.13;2.97;;;;;;;;;;4970536;28;20055;-79
2021/08/06 14:21:50;;;;;;;5.30;2.95;;;;;;;;;;4970208;28;20050;-79
2021/08/06 14:24:17;;;;;;;8.40;2.78;;;;;;;;;;4969284;28;20749;-79
2021/08/06 14:26:45;;;;;;;6.63;3.38;;;;;;;;;;4976892;28;20082;-79
2021/08/06 14:29:16;;;;;;;4.07;3.08;;;;;;;;;;4981726;28;20060;-79
2021/08/06 14:31:44;;;;;;;2.92;2.63;;;;;;;;;;4989605;28;20094;-81
2021/08/06 14:34:11;;;;;;;14.65;2.95;;;;;;;;;;4983847;28;20058;-80
2021/08/06 14:36:40;;;;;;;5.30;2.50;;;;;;;;;;4970846;28;20141;-79
2021/08/06 14:39:07;;;;;;;5.82;2.78;;;;;;;;;;4970165;28;20074;-79
2021/08/06 14:41:35;;;;;;;3.42;2.10;;;;;;;;;;4969166;28;20047;-80
2021/08/06 14:44:04;;;;;;;2.92;2.45;;;;;;;;;;4969591;28;20058;-80
2021/08/06 14:46:32;;;;;;;2.92;2.35;;;;;;;;;;4969509;28;20094;-79
2021/08/06 14:48:59;;;;;;;4.28;2.85;;;;;;;;;;4969298;28;20157;-80
2021/08/06 14:51:26;;;;;;;3.63;2.70;;;;;;;;;;4968794;28;20488;-80
2021/08/06 14:53:56;;;;;;;6.25;2.47;;;;;;;;;;4968300;28;20822;-80